sensor_id;sensor_type;location;lat;lon;timestamp;P1;durP1;ratioP1;P2;durP2;ratioP2
71715;SDS011;59568;52.128;5.434;2023-03-18T00:00:22;10.15;;;5.07;;
71715;SDS011;59568;52.128;5.434;2023-03-18T00:02:48;9.80;;;4.90;;
71715;SDS011;59568;52.128;5.434;2023-03-18T00:05:15;9.35;;;5.43;;
71715;SDS011;59568;52.128;5.434;2023-03-18T00:07:42;7.18;;;4.47;;
71715;SDS011;59568;52.128;5.434;2023-03-18T00:10:09;8.93;;;4.47;;
71715;SDS011;59568;52.128;5.434;2023-03-18T00:12:37;11.38;;;4.32;;
71715;SDS011;59568;52.128;5.434;2023-03-18T00:15:06;8.10;;;4.23;;
71715;SDS011;59568;52.128;5.434;2023-03-18T00:17:34;7.45;;;4.75;;
71715;SDS011;59568;52.128;5.434;2023-03-18T00:20:03;8.10;;;5.10;;
71715;SDS011;59568;52.128;5.434;2023-03-18T00:22:35;8.70;;;4.55;;
71715;SDS011;59568;52.128;5.434;2023-03-18T00:25:04;9.65;;;4.78;;
71715;SDS011;59568;52.128;5.434;2023-03-18T00:27:33;9.83;;;4.60;;
71715;SDS011;59568;52.128;5.434;2023-03-18T00:30:00;10.88;;;5.28;;
71715;SDS011;59568;52.128;5.434;2023-03-18T00:32:27;9.60;;;6.00;;
71715;SDS011;59568;52.128;5.434;2023-03-18T00:34:54;11.30;;;6.10;;
71715;SDS011;59568;52.128;5.434;2023-03-18T00:37:22;9.35;;;5.07;;
71715;SDS011;59568;52.128;5.434;2023-03-18T00:39:57;7.40;;;4.47;;
71715;SDS011;59568;52.128;5.434;2023-03-18T00:42:42;9.80;;;5.05;;
71715;SDS011;59568;52.128;5.434;2023-03-18T00:45:13;8.13;;;4.55;;
71715;SDS011;59568;52.128;5.434;2023-03-18T00:47:42;8.13;;;4.90;;
71715;SDS011;59568;52.128;5.434;2023-03-18T00:50:09;6.97;;;4.72;;
71715;SDS011;59568;52.128;5.434;2023-03-18T00:52:37;10.47;;;5.10;;
71715;SDS011;59568;52.128;5.434;2023-03-18T00:55:04;13.07;;;5.93;;
71715;SDS011;59568;52.128;5.434;2023-03-18T00:57:32;14.93;;;6.55;;
71715;SDS011;59568;52.128;5.434;2023-03-18T00:59:59;8.43;;;5.22;;
71715;SDS011;59568;52.128;5.434;2023-03-18T01:02:26;8.43;;;5.07;;
71715;SDS011;59568;52.128;5.434;2023-03-18T01:04:55;9.13;;;5.30;;
71715;SDS011;59568;52.128;5.434;2023-03-18T01:07:23;10.10;;;5.28;;
71715;SDS011;59568;52.128;5.434;2023-03-18T01:09:50;9.98;;;4.88;;
71715;SDS011;59568;52.128;5.434;2023-03-18T01:12:17;11.25;;;5.95;;
71715;SDS011;59568;52.128;5.434;2023-03-18T01:14:43;12.63;;;5.70;;
71715;SDS011;59568;52.128;5.434;2023-03-18T01:17:10;10.40;;;5.67;;
71715;SDS011;59568;52.128;5.434;2023-03-18T01:19:37;11.00;;;5.03;;
71715;SDS011;59568;52.128;5.434;2023-03-18T01:22:04;9.90;;;5.38;;
71715;SDS011;59568;52.128;5.434;2023-03-18T01:24:30;9.70;;;5.00;;
71715;SDS011;59568;52.128;5.434;2023-03-18T01:26:57;8.57;;;4.90;;
71715;SDS011;59568;52.128;5.434;2023-03-18T01:29:25;8.83;;;5.07;;
71715;SDS011;59568;52.128;5.434;2023-03-18T01:31:51;9.10;;;5.00;;
71715;SDS011;59568;52.128;5.434;2023-03-18T01:34:20;7.78;;;4.78;;
71715;SDS011;59568;52.128;5.434;2023-03-18T01:36:46;9.52;;;5.25;;
71715;SDS011;59568;52.128;5.434;2023-03-18T01:39:13;10.02;;;5.15;;
71715;SDS011;59568;52.128;5.434;2023-03-18T01:41:40;11.00;;;5.53;;
71715;SDS011;59568;52.128;5.434;2023-03-18T01:44:11;10.60;;;4.57;;
71715;SDS011;59568;52.128;5.434;2023-03-18T01:46:46;10.07;;;5.32;;
71715;SDS011;59568;52.128;5.434;2023-03-18T01:49:22;7.95;;;5.60;;
71715;SDS011;59568;52.128;5.434;2023-03-18T01:52:17;8.75;;;5.13;;
71715;SDS011;59568;52.128;5.434;2023-03-18T01:54:49;11.53;;;5.40;;
71715;SDS011;59568;52.128;5.434;2023-03-18T01:57:21;9.18;;;5.15;;
71715;SDS011;59568;52.128;5.434;2023-03-18T01:59:49;9.98;;;6.03;;
71715;SDS011;59568;52.128;5.434;2023-03-18T02:02:18;10.55;;;5.63;;
71715;SDS011;59568;52.128;5.434;2023-03-18T02:04:47;9.60;;;6.05;;
71715;SDS011;59568;52.128;5.434;2023-03-18T02:07:20;11.83;;;6.17;;
71715;SDS011;59568;52.128;5.434;2023-03-18T02:09:49;11.13;;;6.97;;
71715;SDS011;59568;52.128;5.434;2023-03-18T02:12:20;9.65;;;6.03;;
71715;SDS011;59568;52.128;5.434;2023-03-18T02:14:49;10.65;;;6.30;;
71715;SDS011;59568;52.128;5.434;2023-03-18T02:17:19;10.00;;;6.88;;
71715;SDS011;59568;52.128;5.434;2023-03-18T02:20:00;12.73;;;6.00;;
71715;SDS011;59568;52.128;5.434;2023-03-18T02:22:40;15.05;;;7.30;;
71715;SDS011;59568;52.128;5.434;2023-03-18T02:27:58;10.43;;;6.35;;
71715;SDS011;59568;52.128;5.434;2023-03-18T02:30:32;10.43;;;6.00;;
71715;SDS011;59568;52.128;5.434;2023-03-18T02:33:04;11.33;;;7.10;;
71715;SDS011;59568;52.128;5.434;2023-03-18T02:35:32;13.18;;;7.82;;
71715;SDS011;59568;52.128;5.434;2023-03-18T02:38:01;13.52;;;7.43;;
71715;SDS011;59568;52.128;5.434;2023-03-18T02:40:30;16.40;;;7.80;;
71715;SDS011;59568;52.128;5.434;2023-03-18T02:43:14;11.60;;;7.32;;
71715;SDS011;59568;52.128;5.434;2023-03-18T02:45:46;13.97;;;7.77;;
71715;SDS011;59568;52.128;5.434;2023-03-18T02:48:20;15.15;;;7.35;;
71715;SDS011;59568;52.128;5.434;2023-03-18T02:50:51;10.57;;;7.68;;
71715;SDS011;59568;52.128;5.434;2023-03-18T02:53:18;13.43;;;8.68;;
71715;SDS011;59568;52.128;5.434;2023-03-18T02:55:45;16.15;;;8.95;;
71715;SDS011;59568;52.128;5.434;2023-03-18T02:58:12;12.80;;;7.80;;
71715;SDS011;59568;52.128;5.434;2023-03-18T03:00:39;15.63;;;8.25;;
71715;SDS011;59568;52.128;5.434;2023-03-18T03:03:05;12.95;;;7.32;;
71715;SDS011;59568;52.128;5.434;2023-03-18T03:05:33;10.52;;;7.10;;
71715;SDS011;59568;52.128;5.434;2023-03-18T03:08:00;11.68;;;8.15;;
71715;SDS011;59568;52.128;5.434;2023-03-18T03:10:27;14.20;;;9.20;;
71715;SDS011;59568;52.128;5.434;2023-03-18T03:12:55;14.80;;;9.20;;
71715;SDS011;59568;52.128;5.434;2023-03-18T03:15:22;14.48;;;8.73;;
71715;SDS011;59568;52.128;5.434;2023-03-18T03:17:49;13.45;;;8.73;;
71715;SDS011;59568;52.128;5.434;2023-03-18T03:20:15;15.75;;;9.25;;
71715;SDS011;59568;52.128;5.434;2023-03-18T03:22:43;10.80;;;7.57;;
71715;SDS011;59568;52.128;5.434;2023-03-18T03:25:10;13.15;;;8.30;;
71715;SDS011;59568;52.128;5.434;2023-03-18T03:27:37;14.80;;;8.50;;
71715;SDS011;59568;52.128;5.434;2023-03-18T03:30:05;12.80;;;8.50;;
71715;SDS011;59568;52.128;5.434;2023-03-18T03:32:35;15.45;;;9.68;;
71715;SDS011;59568;52.128;5.434;2023-03-18T03:35:01;15.57;;;9.87;;
71715;SDS011;59568;52.128;5.434;2023-03-18T03:37:30;18.77;;;9.15;;
71715;SDS011;59568;52.128;5.434;2023-03-18T03:39:56;13.38;;;9.20;;
71715;SDS011;59568;52.128;5.434;2023-03-18T03:42:25;14.50;;;9.07;;
71715;SDS011;59568;52.128;5.434;2023-03-18T03:44:51;18.27;;;10.05;;
71715;SDS011;59568;52.128;5.434;2023-03-18T03:47:18;15.50;;;9.63;;
71715;SDS011;59568;52.128;5.434;2023-03-18T03:49:46;16.70;;;9.43;;
71715;SDS011;59568;52.128;5.434;2023-03-18T03:52:13;17.80;;;9.18;;
71715;SDS011;59568;52.128;5.434;2023-03-18T03:54:39;15.95;;;9.60;;
71715;SDS011;59568;52.128;5.434;2023-03-18T03:57:07;18.75;;;9.75;;
71715;SDS011;59568;52.128;5.434;2023-03-18T03:59:34;14.33;;;9.17;;
71715;SDS011;59568;52.128;5.434;2023-03-18T04:02:00;15.57;;;9.73;;
71715;SDS011;59568;52.128;5.434;2023-03-18T04:04:28;14.30;;;8.85;;
71715;SDS011;59568;52.128;5.434;2023-03-18T04:06:54;15.98;;;9.57;;
71715;SDS011;59568;52.128;5.434;2023-03-18T04:09:21;17.27;;;9.15;;
71715;SDS011;59568;52.128;5.434;2023-03-18T04:11:48;15.20;;;8.83;;
71715;SDS011;59568;52.128;5.434;2023-03-18T04:14:14;17.27;;;9.15;;
71715;SDS011;59568;52.128;5.434;2023-03-18T04:16:41;17.23;;;8.95;;
71715;SDS011;59568;52.128;5.434;2023-03-18T04:19:09;13.60;;;8.38;;
71715;SDS011;59568;52.128;5.434;2023-03-18T04:21:36;15.18;;;8.75;;
71715;SDS011;59568;52.128;5.434;2023-03-18T04:24:03;13.73;;;8.80;;
71715;SDS011;59568;52.128;5.434;2023-03-18T04:26:30;13.30;;;8.48;;
71715;SDS011;59568;52.128;5.434;2023-03-18T04:28:56;17.30;;;9.10;;
71715;SDS011;59568;52.128;5.434;2023-03-18T04:31:23;13.68;;;8.60;;
71715;SDS011;59568;52.128;5.434;2023-03-18T04:33:49;18.05;;;9.18;;
71715;SDS011;59568;52.128;5.434;2023-03-18T04:36:16;14.23;;;8.03;;
71715;SDS011;59568;52.128;5.434;2023-03-18T04:38:42;13.35;;;8.80;;
71715;SDS011;59568;52.128;5.434;2023-03-18T04:41:09;15.85;;;8.63;;
71715;SDS011;59568;52.128;5.434;2023-03-18T04:43:36;21.13;;;9.68;;
71715;SDS011;59568;52.128;5.434;2023-03-18T04:46:02;15.68;;;9.07;;
71715;SDS011;59568;52.128;5.434;2023-03-18T04:48:29;13.90;;;8.30;;
71715;SDS011;59568;52.128;5.434;2023-03-18T04:50:55;16.30;;;9.07;;
71715;SDS011;59568;52.128;5.434;2023-03-18T04:53:22;12.88;;;8.02;;
71715;SDS011;59568;52.128;5.434;2023-03-18T04:55:48;14.85;;;8.00;;
71715;SDS011;59568;52.128;5.434;2023-03-18T04:58:16;13.27;;;8.95;;
71715;SDS011;59568;52.128;5.434;2023-03-18T05:00:42;14.03;;;8.40;;
71715;SDS011;59568;52.128;5.434;2023-03-18T05:03:10;16.67;;;8.73;;
71715;SDS011;59568;52.128;5.434;2023-03-18T05:05:37;16.90;;;8.90;;
71715;SDS011;59568;52.128;5.434;2023-03-18T05:08:04;14.10;;;7.80;;
71715;SDS011;59568;52.128;5.434;2023-03-18T05:10:32;15.82;;;8.73;;
71715;SDS011;59568;52.128;5.434;2023-03-18T05:12:59;12.43;;;7.73;;
71715;SDS011;59568;52.128;5.434;2023-03-18T05:15:27;15.38;;;8.40;;
71715;SDS011;59568;52.128;5.434;2023-03-18T05:17:53;14.07;;;8.13;;
71715;SDS011;59568;52.128;5.434;2023-03-18T05:20:20;16.65;;;8.43;;
71715;SDS011;59568;52.128;5.434;2023-03-18T05:22:46;17.48;;;8.65;;
71715;SDS011;59568;52.128;5.434;2023-03-18T05:25:13;16.53;;;8.87;;
71715;SDS011;59568;52.128;5.434;2023-03-18T05:27:39;18.20;;;8.63;;
71715;SDS011;59568;52.128;5.434;2023-03-18T05:30:07;16.73;;;8.77;;
71715;SDS011;59568;52.128;5.434;2023-03-18T05:32:36;16.35;;;8.52;;
71715;SDS011;59568;52.128;5.434;2023-03-18T05:35:03;14.70;;;8.52;;
71715;SDS011;59568;52.128;5.434;2023-03-18T05:37:31;17.37;;;8.30;;
71715;SDS011;59568;52.128;5.434;2023-03-18T05:39:57;16.13;;;8.68;;
71715;SDS011;59568;52.128;5.434;2023-03-18T05:42:24;18.27;;;8.27;;
71715;SDS011;59568;52.128;5.434;2023-03-18T05:44:50;13.90;;;8.45;;
71715;SDS011;59568;52.128;5.434;2023-03-18T05:47:17;18.77;;;8.88;;
71715;SDS011;59568;52.128;5.434;2023-03-18T05:49:43;17.00;;;8.50;;
71715;SDS011;59568;52.128;5.434;2023-03-18T05:52:10;18.17;;;7.68;;
71715;SDS011;59568;52.128;5.434;2023-03-18T05:54:36;14.30;;;8.13;;
71715;SDS011;59568;52.128;5.434;2023-03-18T05:57:03;18.02;;;8.32;;
71715;SDS011;59568;52.128;5.434;2023-03-18T05:59:30;18.80;;;8.48;;
71715;SDS011;59568;52.128;5.434;2023-03-18T06:01:56;17.27;;;8.43;;
71715;SDS011;59568;52.128;5.434;2023-03-18T06:04:23;16.35;;;8.10;;
71715;SDS011;59568;52.128;5.434;2023-03-18T06:06:52;15.90;;;8.88;;
71715;SDS011;59568;52.128;5.434;2023-03-18T06:09:20;15.25;;;8.57;;
71715;SDS011;59568;52.128;5.434;2023-03-18T06:11:47;16.70;;;8.88;;
71715;SDS011;59568;52.128;5.434;2023-03-18T06:14:14;16.47;;;8.87;;
71715;SDS011;59568;52.128;5.434;2023-03-18T06:16:41;17.65;;;8.50;;
71715;SDS011;59568;52.128;5.434;2023-03-18T06:19:08;19.58;;;9.38;;
71715;SDS011;59568;52.128;5.434;2023-03-18T06:21:36;17.27;;;8.63;;
71715;SDS011;59568;52.128;5.434;2023-03-18T06:24:06;20.33;;;8.90;;
71715;SDS011;59568;52.128;5.434;2023-03-18T06:26:33;15.87;;;7.57;;
71715;SDS011;59568;52.128;5.434;2023-03-18T06:29:00;17.70;;;8.07;;
71715;SDS011;59568;52.128;5.434;2023-03-18T06:31:26;13.00;;;7.70;;
71715;SDS011;59568;52.128;5.434;2023-03-18T06:33:53;14.13;;;7.60;;
71715;SDS011;59568;52.128;5.434;2023-03-18T06:36:20;14.65;;;8.05;;
71715;SDS011;59568;52.128;5.434;2023-03-18T06:38:47;13.13;;;8.17;;
71715;SDS011;59568;52.128;5.434;2023-03-18T06:41:14;14.45;;;7.78;;
71715;SDS011;59568;52.128;5.434;2023-03-18T06:43:41;14.20;;;7.72;;
71715;SDS011;59568;52.128;5.434;2023-03-18T06:46:08;16.17;;;8.38;;
71715;SDS011;59568;52.128;5.434;2023-03-18T06:48:35;16.65;;;8.32;;
71715;SDS011;59568;52.128;5.434;2023-03-18T06:51:08;13.47;;;7.57;;
71715;SDS011;59568;52.128;5.434;2023-03-18T06:53:36;18.90;;;8.40;;
71715;SDS011;59568;52.128;5.434;2023-03-18T06:56:03;15.35;;;8.93;;
71715;SDS011;59568;52.128;5.434;2023-03-18T06:58:31;14.18;;;8.23;;
71715;SDS011;59568;52.128;5.434;2023-03-18T07:00:57;18.30;;;8.77;;
71715;SDS011;59568;52.128;5.434;2023-03-18T07:03:24;14.90;;;8.13;;
71715;SDS011;59568;52.128;5.434;2023-03-18T07:05:52;18.60;;;8.90;;
71715;SDS011;59568;52.128;5.434;2023-03-18T07:08:19;19.88;;;9.27;;
71715;SDS011;59568;52.128;5.434;2023-03-18T07:10:46;19.45;;;8.85;;
71715;SDS011;59568;52.128;5.434;2023-03-18T07:13:12;16.65;;;8.93;;
71715;SDS011;59568;52.128;5.434;2023-03-18T07:15:40;18.90;;;9.47;;
71715;SDS011;59568;52.128;5.434;2023-03-18T07:18:08;17.73;;;9.32;;
71715;SDS011;59568;52.128;5.434;2023-03-18T07:20:37;17.75;;;8.60;;
71715;SDS011;59568;52.128;5.434;2023-03-18T07:23:03;16.85;;;8.88;;
71715;SDS011;59568;52.128;5.434;2023-03-18T07:25:30;15.25;;;7.90;;
71715;SDS011;59568;52.128;5.434;2023-03-18T07:27:58;16.83;;;8.90;;
71715;SDS011;59568;52.128;5.434;2023-03-18T07:30:28;17.52;;;8.95;;
71715;SDS011;59568;52.128;5.434;2023-03-18T07:32:55;13.85;;;8.52;;
71715;SDS011;59568;52.128;5.434;2023-03-18T07:35:22;17.77;;;8.35;;
71715;SDS011;59568;52.128;5.434;2023-03-18T07:37:49;21.00;;;10.32;;
71715;SDS011;59568;52.128;5.434;2023-03-18T07:40:16;16.30;;;8.80;;
71715;SDS011;59568;52.128;5.434;2023-03-18T07:42:43;17.55;;;9.73;;
71715;SDS011;59568;52.128;5.434;2023-03-18T07:45:10;19.20;;;9.63;;
71715;SDS011;59568;52.128;5.434;2023-03-18T07:47:36;16.92;;;9.43;;
71715;SDS011;59568;52.128;5.434;2023-03-18T07:50:03;16.42;;;9.30;;
71715;SDS011;59568;52.128;5.434;2023-03-18T07:52:30;16.80;;;9.70;;
71715;SDS011;59568;52.128;5.434;2023-03-18T07:54:57;18.65;;;9.55;;
71715;SDS011;59568;52.128;5.434;2023-03-18T07:57:24;16.77;;;9.52;;
71715;SDS011;59568;52.128;5.434;2023-03-18T07:59:51;18.85;;;10.35;;
71715;SDS011;59568;52.128;5.434;2023-03-18T08:02:17;14.85;;;9.65;;
71715;SDS011;59568;52.128;5.434;2023-03-18T08:04:45;15.73;;;10.07;;
71715;SDS011;59568;52.128;5.434;2023-03-18T08:07:12;18.60;;;10.00;;
71715;SDS011;59568;52.128;5.434;2023-03-18T08:09:39;20.60;;;10.30;;
71715;SDS011;59568;52.128;5.434;2023-03-18T08:12:06;21.30;;;11.32;;
71715;SDS011;59568;52.128;5.434;2023-03-18T08:14:33;17.73;;;11.75;;
71715;SDS011;59568;52.128;5.434;2023-03-18T08:17:00;20.50;;;11.30;;
71715;SDS011;59568;52.128;5.434;2023-03-18T08:19:28;17.20;;;10.98;;
71715;SDS011;59568;52.128;5.434;2023-03-18T08:21:54;21.08;;;10.70;;
71715;SDS011;59568;52.128;5.434;2023-03-18T08:24:21;15.02;;;10.02;;
71715;SDS011;59568;52.128;5.434;2023-03-18T08:26:47;17.38;;;10.45;;
71715;SDS011;59568;52.128;5.434;2023-03-18T08:29:14;15.57;;;9.17;;
71715;SDS011;59568;52.128;5.434;2023-03-18T08:31:41;18.75;;;9.55;;
71715;SDS011;59568;52.128;5.434;2023-03-18T08:34:08;15.63;;;8.82;;
71715;SDS011;59568;52.128;5.434;2023-03-18T08:36:36;13.48;;;8.30;;
71715;SDS011;59568;52.128;5.434;2023-03-18T08:39:02;14.70;;;8.35;;
71715;SDS011;59568;52.128;5.434;2023-03-18T08:41:30;12.43;;;7.63;;
71715;SDS011;59568;52.128;5.434;2023-03-18T08:43:57;14.23;;;9.07;;
71715;SDS011;59568;52.128;5.434;2023-03-18T08:46:24;13.88;;;8.57;;
71715;SDS011;59568;52.128;5.434;2023-03-18T08:48:51;15.40;;;8.82;;
71715;SDS011;59568;52.128;5.434;2023-03-18T08:51:20;13.43;;;8.35;;
71715;SDS011;59568;52.128;5.434;2023-03-18T08:53:50;16.53;;;9.90;;
71715;SDS011;59568;52.128;5.434;2023-03-18T08:56:16;14.43;;;9.02;;
71715;SDS011;59568;52.128;5.434;2023-03-18T08:58:43;13.23;;;9.27;;
71715;SDS011;59568;52.128;5.434;2023-03-18T09:01:11;16.42;;;9.93;;
71715;SDS011;59568;52.128;5.434;2023-03-18T09:03:38;16.70;;;9.38;;
71715;SDS011;59568;52.128;5.434;2023-03-18T09:06:05;17.27;;;8.97;;
71715;SDS011;59568;52.128;5.434;2023-03-18T09:08:32;13.32;;;9.15;;
71715;SDS011;59568;52.128;5.434;2023-03-18T09:10:59;15.82;;;9.48;;
71715;SDS011;59568;52.128;5.434;2023-03-18T09:13:25;13.55;;;9.10;;
71715;SDS011;59568;52.128;5.434;2023-03-18T09:15:52;14.82;;;9.20;;
71715;SDS011;59568;52.128;5.434;2023-03-18T09:18:19;15.37;;;8.93;;
71715;SDS011;59568;52.128;5.434;2023-03-18T09:20:47;15.48;;;8.68;;
71715;SDS011;59568;52.128;5.434;2023-03-18T09:23:14;13.98;;;8.02;;
71715;SDS011;59568;52.128;5.434;2023-03-18T09:25:44;13.85;;;8.63;;
71715;SDS011;59568;52.128;5.434;2023-03-18T09:28:12;16.40;;;9.52;;
71715;SDS011;59568;52.128;5.434;2023-03-18T09:30:39;15.73;;;9.37;;
71715;SDS011;59568;52.128;5.434;2023-03-18T09:33:07;14.00;;;8.93;;
71715;SDS011;59568;52.128;5.434;2023-03-18T09:35:37;17.48;;;8.68;;
71715;SDS011;59568;52.128;5.434;2023-03-18T09:38:03;15.70;;;9.15;;
71715;SDS011;59568;52.128;5.434;2023-03-18T09:40:31;13.15;;;9.07;;
71715;SDS011;59568;52.128;5.434;2023-03-18T09:53:50;12.70;;;7.82;;
71715;SDS011;59568;52.128;5.434;2023-03-18T09:56:30;11.00;;;7.23;;
71715;SDS011;59568;52.128;5.434;2023-03-18T09:59:05;12.43;;;6.65;;
71715;SDS011;59568;52.128;5.434;2023-03-18T10:01:41;13.45;;;7.13;;
71715;SDS011;59568;52.128;5.434;2023-03-18T10:07:18;13.38;;;7.57;;
71715;SDS011;59568;52.128;5.434;2023-03-18T10:09:53;11.80;;;7.57;;
71715;SDS011;59568;52.128;5.434;2023-03-18T10:12:31;12.57;;;6.95;;
71715;SDS011;59568;52.128;5.434;2023-03-18T10:17:55;11.27;;;6.80;;
71715;SDS011;59568;52.128;5.434;2023-03-18T10:25:51;10.57;;;6.03;;
71715;SDS011;59568;52.128;5.434;2023-03-18T10:34:01;10.90;;;6.00;;
71715;SDS011;59568;52.128;5.434;2023-03-18T10:36:54;9.70;;;5.70;;
71715;SDS011;59568;52.128;5.434;2023-03-18T10:39:31;12.65;;;6.72;;
71715;SDS011;59568;52.128;5.434;2023-03-18T10:42:01;10.55;;;7.22;;
71715;SDS011;59568;52.128;5.434;2023-03-18T10:44:44;9.32;;;5.53;;
71715;SDS011;59568;52.128;5.434;2023-03-18T10:47:13;10.32;;;6.28;;
71715;SDS011;59568;52.128;5.434;2023-03-18T10:55:30;7.05;;;3.95;;
71715;SDS011;59568;52.128;5.434;2023-03-18T10:58:08;6.70;;;4.05;;
71715;SDS011;59568;52.128;5.434;2023-03-18T11:00:40;8.02;;;3.60;;
71715;SDS011;59568;52.128;5.434;2023-03-18T11:03:09;7.60;;;3.93;;
71715;SDS011;59568;52.128;5.434;2023-03-18T11:05:45;7.20;;;4.43;;
71715;SDS011;59568;52.128;5.434;2023-03-18T11:08:34;7.60;;;4.38;;
71715;SDS011;59568;52.128;5.434;2023-03-18T11:11:15;9.02;;;4.40;;
71715;SDS011;59568;52.128;5.434;2023-03-18T11:13:59;8.10;;;4.70;;
71715;SDS011;59568;52.128;5.434;2023-03-18T11:16:34;7.43;;;3.80;;
71715;SDS011;59568;52.128;5.434;2023-03-18T11:24:37;7.15;;;4.10;;
71715;SDS011;59568;52.128;5.434;2023-03-18T11:30:08;6.40;;;3.70;;
71715;SDS011;59568;52.128;5.434;2023-03-18T11:40:49;7.53;;;4.10;;
71715;SDS011;59568;52.128;5.434;2023-03-18T11:43:19;8.87;;;4.00;;
71715;SDS011;59568;52.128;5.434;2023-03-18T11:45:59;6.32;;;3.95;;
71715;SDS011;59568;52.128;5.434;2023-03-18T11:48:31;7.35;;;3.85;;
71715;SDS011;59568;52.128;5.434;2023-03-18T11:51:09;6.85;;;3.60;;
71715;SDS011;59568;52.128;5.434;2023-03-18T11:54:02;8.70;;;3.72;;
71715;SDS011;59568;52.128;5.434;2023-03-18T11:56:41;6.80;;;3.27;;
71715;SDS011;59568;52.128;5.434;2023-03-18T11:59:18;11.75;;;3.72;;
71715;SDS011;59568;52.128;5.434;2023-03-18T12:04:51;5.90;;;3.10;;
71715;SDS011;59568;52.128;5.434;2023-03-18T12:07:35;8.55;;;3.70;;
71715;SDS011;59568;52.128;5.434;2023-03-18T12:26:50;6.20;;;2.85;;
71715;SDS011;59568;52.128;5.434;2023-03-18T12:29:44;6.32;;;3.33;;
71715;SDS011;59568;52.128;5.434;2023-03-18T12:37:48;7.23;;;3.13;;
71715;SDS011;59568;52.128;5.434;2023-03-18T12:40:27;4.72;;;2.70;;
71715;SDS011;59568;52.128;5.434;2023-03-18T12:45:51;6.82;;;2.65;;
71715;SDS011;59568;52.128;5.434;2023-03-18T12:48:24;4.50;;;2.60;;
71715;SDS011;59568;52.128;5.434;2023-03-18T12:51:10;4.93;;;2.83;;
71715;SDS011;59568;52.128;5.434;2023-03-18T12:53:43;6.43;;;2.63;;
71715;SDS011;59568;52.128;5.434;2023-03-18T12:58:59;5.70;;;2.40;;
71715;SDS011;59568;52.128;5.434;2023-03-18T13:01:43;6.22;;;2.55;;
71715;SDS011;59568;52.128;5.434;2023-03-18T13:04:20;4.60;;;2.00;;
71715;SDS011;59568;52.128;5.434;2023-03-18T13:06:54;5.53;;;1.77;;
71715;SDS011;59568;52.128;5.434;2023-03-18T13:09:35;6.68;;;2.08;;
71715;SDS011;59568;52.128;5.434;2023-03-18T13:14:59;6.47;;;2.22;;
71715;SDS011;59568;52.128;5.434;2023-03-18T13:17:28;6.10;;;2.77;;
71715;SDS011;59568;52.128;5.434;2023-03-18T13:20:11;5.88;;;2.40;;
71715;SDS011;59568;52.128;5.434;2023-03-18T13:25:26;7.45;;;3.17;;
71715;SDS011;59568;52.128;5.434;2023-03-18T13:33:49;8.48;;;3.53;;
71715;SDS011;59568;52.128;5.434;2023-03-18T13:42:07;8.27;;;3.15;;
71715;SDS011;59568;52.128;5.434;2023-03-18T13:47:36;6.20;;;3.13;;
71715;SDS011;59568;52.128;5.434;2023-03-18T13:52:44;6.75;;;2.83;;
71715;SDS011;59568;52.128;5.434;2023-03-18T14:00:33;7.47;;;3.05;;
71715;SDS011;59568;52.128;5.434;2023-03-18T14:13:40;9.38;;;2.38;;
71715;SDS011;59568;52.128;5.434;2023-03-18T14:16:08;4.65;;;2.50;;
71715;SDS011;59568;52.128;5.434;2023-03-18T14:18:40;6.32;;;2.10;;
71715;SDS011;59568;52.128;5.434;2023-03-18T14:21:21;6.57;;;2.00;;
71715;SDS011;59568;52.128;5.434;2023-03-18T14:26:38;3.03;;;0.80;;
71715;SDS011;59568;52.128;5.434;2023-03-18T14:31:48;5.15;;;1.08;;
71715;SDS011;59568;52.128;5.434;2023-03-18T14:39:23;1.73;;;0.47;;
71715;SDS011;59568;52.128;5.434;2023-03-18T14:41:59;2.15;;;0.90;;
71715;SDS011;59568;52.128;5.434;2023-03-18T14:47:11;3.25;;;1.00;;
71715;SDS011;59568;52.128;5.434;2023-03-18T14:50:05;5.43;;;1.50;;
71715;SDS011;59568;52.128;5.434;2023-03-18T14:52:40;6.72;;;1.20;;
71715;SDS011;59568;52.128;5.434;2023-03-18T14:55:15;6.40;;;1.00;;
71715;SDS011;59568;52.128;5.434;2023-03-18T14:57:49;2.83;;;1.25;;
71715;SDS011;59568;52.128;5.434;2023-03-18T15:00:19;2.30;;;0.95;;
71715;SDS011;59568;52.128;5.434;2023-03-18T15:02:48;3.90;;;1.10;;
71715;SDS011;59568;52.128;5.434;2023-03-18T15:05:27;3.60;;;1.73;;
71715;SDS011;59568;52.128;5.434;2023-03-18T15:08:00;4.88;;;1.70;;
71715;SDS011;59568;52.128;5.434;2023-03-18T15:10:32;3.88;;;1.50;;
71715;SDS011;59568;52.128;5.434;2023-03-18T15:12:59;4.45;;;1.90;;
71715;SDS011;59568;52.128;5.434;2023-03-18T15:15:29;5.13;;;2.17;;
71715;SDS011;59568;52.128;5.434;2023-03-18T15:18:01;4.63;;;1.80;;
71715;SDS011;59568;52.128;5.434;2023-03-18T15:20:32;3.15;;;1.80;;
71715;SDS011;59568;52.128;5.434;2023-03-18T15:23:01;3.50;;;1.58;;
71715;SDS011;59568;52.128;5.434;2023-03-18T15:25:33;3.63;;;2.13;;
71715;SDS011;59568;52.128;5.434;2023-03-18T15:28:01;4.83;;;1.97;;
71715;SDS011;59568;52.128;5.434;2023-03-18T15:30:29;4.40;;;1.80;;
71715;SDS011;59568;52.128;5.434;2023-03-18T15:33:05;6.25;;;1.90;;
71715;SDS011;59568;52.128;5.434;2023-03-18T15:35:42;5.22;;;1.80;;
71715;SDS011;59568;52.128;5.434;2023-03-18T15:38:13;5.72;;;1.70;;
71715;SDS011;59568;52.128;5.434;2023-03-18T15:40:47;4.87;;;1.63;;
71715;SDS011;59568;52.128;5.434;2023-03-18T15:46:23;3.88;;;1.33;;
71715;SDS011;59568;52.128;5.434;2023-03-18T15:48:53;4.45;;;1.70;;
71715;SDS011;59568;52.128;5.434;2023-03-18T15:51:23;5.90;;;1.25;;
71715;SDS011;59568;52.128;5.434;2023-03-18T15:54:18;5.03;;;0.80;;
71715;SDS011;59568;52.128;5.434;2023-03-18T15:56:51;3.90;;;1.00;;
71715;SDS011;59568;52.128;5.434;2023-03-18T15:59:27;4.45;;;1.00;;
71715;SDS011;59568;52.128;5.434;2023-03-18T16:01:56;2.58;;;0.82;;
71715;SDS011;59568;52.128;5.434;2023-03-18T16:04:24;2.25;;;0.95;;
71715;SDS011;59568;52.128;5.434;2023-03-18T16:06:55;1.17;;;0.57;;
71715;SDS011;59568;52.128;5.434;2023-03-18T16:09:22;4.70;;;1.30;;
71715;SDS011;59568;52.128;5.434;2023-03-18T16:11:58;3.35;;;1.17;;
71715;SDS011;59568;52.128;5.434;2023-03-18T16:14:30;4.38;;;1.20;;
71715;SDS011;59568;52.128;5.434;2023-03-18T16:17:02;3.30;;;1.02;;
71715;SDS011;59568;52.128;5.434;2023-03-18T16:19:29;2.53;;;1.10;;
71715;SDS011;59568;52.128;5.434;2023-03-18T16:21:56;2.45;;;1.08;;
71715;SDS011;59568;52.128;5.434;2023-03-18T16:24:24;2.10;;;1.10;;
71715;SDS011;59568;52.128;5.434;2023-03-18T16:26:51;6.13;;;1.20;;
71715;SDS011;59568;52.128;5.434;2023-03-18T16:29:21;2.50;;;0.70;;
71715;SDS011;59568;52.128;5.434;2023-03-18T16:31:53;2.30;;;1.10;;
71715;SDS011;59568;52.128;5.434;2023-03-18T16:34:19;2.72;;;1.15;;
71715;SDS011;59568;52.128;5.434;2023-03-18T16:36:47;3.25;;;1.20;;
71715;SDS011;59568;52.128;5.434;2023-03-18T16:41:44;3.28;;;1.40;;
71715;SDS011;59568;52.128;5.434;2023-03-18T16:44:13;3.33;;;1.37;;
71715;SDS011;59568;52.128;5.434;2023-03-18T16:46:44;3.17;;;1.40;;
71715;SDS011;59568;52.128;5.434;2023-03-18T16:49:26;3.42;;;1.30;;
71715;SDS011;59568;52.128;5.434;2023-03-18T16:51:56;3.53;;;1.30;;
71715;SDS011;59568;52.128;5.434;2023-03-18T16:54:28;3.72;;;1.15;;
71715;SDS011;59568;52.128;5.434;2023-03-18T16:56:58;4.57;;;1.00;;
71715;SDS011;59568;52.128;5.434;2023-03-18T16:59:28;2.25;;;0.93;;
71715;SDS011;59568;52.128;5.434;2023-03-18T17:01:56;3.85;;;1.80;;
71715;SDS011;59568;52.128;5.434;2023-03-18T17:04:30;2.90;;;1.23;;
71715;SDS011;59568;52.128;5.434;2023-03-18T17:06:58;3.55;;;1.55;;
71715;SDS011;59568;52.128;5.434;2023-03-18T17:09:27;2.10;;;1.40;;
71715;SDS011;59568;52.128;5.434;2023-03-18T17:11:58;3.25;;;1.00;;
71715;SDS011;59568;52.128;5.434;2023-03-18T17:17:04;3.85;;;1.52;;